Time,TemperatureF,DewpointF,PressureIn,WindDirection,WindDirectionDegrees,WindSpeedMPH,WindSpeedGustMPH,Humidity,HourlyPrecipIn,Conditions,Clouds,dailyrainin,SoftwareType,DateUTC
2013-05-25 00:04:00,65.6,45.0,30.17,NE,34,3.0,-999.0,48,-99.99,,,0.00,weatherlink.com 1.10,2013-05-25 04:04:00,
2013-05-25 00:19:00,65.6,45.0,30.17,NNW,348,6.0,-999.0,48,-99.99,,,0.00,weatherlink.com 1.10,2013-05-25 04:19:00,
2013-05-25 00:34:00,65.3,44.0,30.17,ENE,59,4.0,-999.0,47,-99.99,,,0.00,weatherlink.com 1.10,2013-05-25 04:34:00,
2013-05-25 00:49:00,64.9,45.0,30.17,NNE,30,3.0,-999.0,48,-99.99,,,0.00,weatherlink.com 1.10,2013-05-25 04:49:00,
2013-05-25 01:04:00,64.3,45.0,30.17,NNE,21,0.0,-999.0,49,-99.99,,,0.00,weatherlink.com 1.10,2013-05-25 05:04:00,
2013-05-25 01:19:00,63.8,45.0,30.17,NNW,348,1.0,-999.0,50,-99.99,,,0.00,weatherlink.com 1.10,2013-05-25 05:19:00,
2013-05-25 01:34:00,63.3,45.0,30.17,NNE,32,2.0,-999.0,51,-99.99,,,0.00,weatherlink.com 1.10,2013-05-25 05:34:00,
2013-05-25 01:49:00,62.8,45.0,30.17,NNE,24,1.0,-999.0,53,-99.99,,,0.00,weatherlink.com 1.10,2013-05-25 05:49:00,
2013-05-25 02:04:00,62.3,45.0,30.17,North,5,0.0,-999.0,54,-99.99,,,0.00,weatherlink.com 1.10,2013-05-25 06:04:00,
2013-05-25 02:19:00,61.8,45.0,30.17,NNE,19,2.0,-999.0,54,-99.99,,,0.00,weatherlink.com 1.10,2013-05-25 06:19:00,
2013-05-25 02:34:00,61.3,45.0,30.17,NNE,30,2.0,-999.0,56,-99.99,,,0.00,weatherlink.com 1.10,2013-05-25 06:34:00,
2013-05-25 02:49:00,60.7,44.0,30.17,NNE,15,1.0,-999.0,55,-99.99,,,0.00,weatherlink.com 1.10,2013-05-25 06:49:00,
2013-05-25 03:04:00,60.3,44.0,30.17,NE,37,0.0,-999.0,56,-99.99,,,0.00,weatherlink.com 1.10,2013-05-25 07:04:00,
2013-05-25 03:19:00,60.2,45.0,30.18,North,5,5.0,-999.0,57,-99.99,,,0.00,weatherlink.com 1.10,2013-05-25 07:19:00,
2013-05-25 03:35:00,60.0,44.0,30.17,North,5,4.0,-999.0,57,-99.99,,,0.00,weatherlink.com 1.10,2013-05-25 07:35:00,
2013-05-25 03:57:00,60.0,44.0,30.18,NNE,31,4.0,-999.0,57,-99.99,,,0.00,weatherlink.com 1.10,2013-05-25 07:57:00,
2013-05-25 04:04:00,60.2,44.0,30.18,NNE,32,8.0,-999.0,56,-99.99,,,0.00,weatherlink.com 1.10,2013-05-25 08:04:00,
2013-05-25 04:19:00,60.0,44.0,30.18,North,355,4.0,-999.0,56,-99.99,,,0.00,weatherlink.com 1.10,2013-05-25 08:19:00,
2013-05-25 04:34:00,59.5,44.0,30.18,NE,52,6.0,-999.0,57,-99.99,,,0.00,weatherlink.com 1.10,2013-05-25 08:34:00,
2013-05-25 04:49:00,59.2,44.0,30.19,NNE,33,4.0,-999.0,58,-99.99,,,0.00,weatherlink.com 1.10,2013-05-25 08:49:00,
2013-05-25 05:04:00,58.8,44.0,30.20,NNW,344,3.0,-999.0,59,-99.99,,,0.00,weatherlink.com 1.10,2013-05-25 09:04:00,
2013-05-25 05:19:00,57.9,44.0,30.20,NNE,26,5.0,-999.0,61,-99.99,,,0.00,weatherlink.com 1.10,2013-05-25 09:19:00,
2013-05-25 05:34:00,57.7,44.0,30.20,NE,38,6.0,-999.0,61,-99.99,,,0.00,weatherlink.com 1.10,2013-05-25 09:34:00,
2013-05-25 05:50:00,57.2,44.0,30.22,NNW,339,6.0,-999.0,62,-99.99,,,0.00,weatherlink.com 1.10,2013-05-25 09:50:00,
2013-05-25 06:05:00,56.7,45.0,30.23,NNE,15,5.0,-999.0,64,-99.99,,,0.00,weatherlink.com 1.10,2013-05-25 10:05:00,
2013-05-25 06:20:00,55.9,45.0,30.23,NNE,17,5.0,-999.0,66,-99.99,,,0.00,weatherlink.com 1.10,2013-05-25 10:20:00,
2013-05-25 06:35:00,55.5,44.0,30.24,NNE,22,8.0,-999.0,66,-99.99,,,0.00,weatherlink.com 1.10,2013-05-25 10:35:00,
2013-05-25 06:56:00,55.9,43.0,30.25,North,360,5.0,-999.0,63,-99.99,,,0.00,weatherlink.com 1.10,2013-05-25 10:56:00,
2013-05-25 07:05:00,56.0,43.0,30.25,NNW,338,5.0,-999.0,61,-99.99,,,0.00,weatherlink.com 1.10,2013-05-25 11:05:00,
2013-05-25 07:20:00,56.5,43.0,30.27,NNE,22,2.0,-999.0,60,-99.99,,,0.00,weatherlink.com 1.10,2013-05-25 11:20:00,
2013-05-25 07:35:00,57.0,43.0,30.27,North,355,8.0,-999.0,59,-99.99,,,0.00,weatherlink.com 1.10,2013-05-25 11:35:00,
2013-05-25 07:57:00,58.1,43.0,30.27,NW,322,6.0,-999.0,57,-99.99,,,0.00,weatherlink.com 1.10,2013-05-25 11:57:00,
2013-05-25 08:05:00,58.5,44.0,30.28,NNE,32,7.0,-999.0,58,-99.99,,,0.00,weatherlink.com 1.10,2013-05-25 12:05:00,
2013-05-25 08:20:00,58.9,42.0,30.28,NNW,346,5.0,-999.0,54,-99.99,,,0.00,weatherlink.com 1.10,2013-05-25 12:20:00,
2013-05-25 08:35:00,59.7,42.0,30.29,North,360,6.0,-999.0,53,-99.99,,,0.00,weatherlink.com 1.10,2013-05-25 12:35:00,
2013-05-25 08:57:00,61.2,42.0,30.30,NNW,345,7.0,-999.0,49,-99.99,,,0.00,weatherlink.com 1.10,2013-05-25 12:57:00,
2013-05-25 09:05:00,61.4,43.0,30.30,East,80,4.0,-999.0,51,-99.99,,,0.00,weatherlink.com 1.10,2013-05-25 13:05:00,
2013-05-25 09:20:00,61.6,42.0,30.30,ENE,73,3.0,-999.0,48,-99.99,,,0.00,weatherlink.com 1.10,2013-05-25 13:20:00,
2013-05-25 09:35:00,62.5,42.0,30.31,NE,36,6.0,-999.0,47,-99.99,,,0.00,weatherlink.com 1.10,2013-05-25 13:35:00,
2013-05-25 09:58:00,62.9,42.0,30.31,North,355,10.0,-999.0,46,-99.99,,,0.00,weatherlink.com 1.10,2013-05-25 13:58:00,
2013-05-25 10:06:00,63.2,41.0,30.30,NE,42,5.0,-999.0,45,-99.99,,,0.00,weatherlink.com 1.10,2013-05-25 14:06:00,
2013-05-25 10:21:00,63.5,43.0,30.31,North,355,5.0,-999.0,47,-99.99,,,0.00,weatherlink.com 1.10,2013-05-25 14:21:00,
2013-05-25 10:36:00,64.4,44.0,30.30,NW,323,9.0,-999.0,48,-99.99,,,0.00,weatherlink.com 1.10,2013-05-25 14:36:00,
2013-05-25 10:58:00,65.2,43.0,30.30,NNW,338,6.0,-999.0,44,-99.99,,,0.00,weatherlink.com 1.10,2013-05-25 14:58:00,
2013-05-25 11:07:00,65.5,42.0,30.30,NNE,19,13.0,-999.0,43,-99.99,,,0.00,weatherlink.com 1.10,2013-05-25 15:07:00,
2013-05-25 11:22:00,65.7,42.0,30.30,NNW,330,0.0,-999.0,42,-99.99,,,0.00,weatherlink.com 1.10,2013-05-25 15:22:00,
2013-05-25 11:37:00,66.1,43.0,30.29,NE,42,4.0,-999.0,44,-99.99,,,0.00,weatherlink.com 1.10,2013-05-25 15:37:00,
2013-05-25 11:58:00,66.8,42.0,30.29,WNW,291,6.0,-999.0,41,-99.99,,,0.00,weatherlink.com 1.10,2013-05-25 15:58:00,
2013-05-25 12:06:00,67.5,43.0,30.29,NNE,19,11.0,-999.0,41,-99.99,,,0.00,weatherlink.com 1.10,2013-05-25 16:06:00,
2013-05-25 12:21:00,68.0,43.0,30.28,NW,309,8.0,-999.0,41,-99.99,,,0.00,weatherlink.com 1.10,2013-05-25 16:21:00,
2013-05-25 12:36:00,68.4,44.0,30.28,NW,319,4.0,-999.0,42,-99.99,,,0.00,weatherlink.com 1.10,2013-05-25 16:36:00,
2013-05-25 12:58:00,69.2,44.0,30.27,NNW,343,7.0,-999.0,41,-99.99,,,0.00,weatherlink.com 1.10,2013-05-25 16:58:00,
2013-05-25 13:06:00,69.5,44.0,30.27,West,279,5.0,-999.0,40,-99.99,,,0.00,weatherlink.com 1.10,2013-05-25 17:06:00,
2013-05-25 13:21:00,70.6,44.0,30.26,NW,306,4.0,-999.0,39,-99.99,,,0.00,weatherlink.com 1.10,2013-05-25 17:21:00,
2013-05-25 13:36:00,70.6,44.0,30.26,NW,324,5.0,-999.0,38,-99.99,,,0.00,weatherlink.com 1.10,2013-05-25 17:36:00,
2013-05-25 13:58:00,73.3,46.0,30.25,ESE,113,0.0,-999.0,38,-99.99,,,0.00,weatherlink.com 1.10,2013-05-25 17:58:00,
2013-05-25 14:07:00,73.0,44.0,30.25,North,360,4.0,-999.0,36,-99.99,,,0.00,weatherlink.com 1.10,2013-05-25 18:07:00,
2013-05-25 14:22:00,72.9,45.0,30.25,NNE,22,0.0,-999.0,37,-99.99,,,0.00,weatherlink.com 1.10,2013-05-25 18:22:00,
2013-05-25 14:37:00,74.8,50.0,30.25,East,85,2.0,-999.0,42,-99.99,,,0.00,weatherlink.com 1.10,2013-05-25 18:37:00,
2013-05-25 14:52:00,76.7,53.0,30.23,SSE,165,1.0,-999.0,44,-99.99,,,0.00,weatherlink.com 1.10,2013-05-25 18:52:00,
2013-05-25 15:07:00,76.1,52.0,30.22,SSE,155,4.0,-999.0,43,-99.99,,,0.00,weatherlink.com 1.10,2013-05-25 19:07:00,
2013-05-25 15:22:00,76.1,50.0,30.21,East,97,4.0,-999.0,40,-99.99,,,0.00,weatherlink.com 1.10,2013-05-25 19:22:00,
2013-05-25 15:37:00,77.5,53.0,30.21,SSE,158,1.0,-999.0,43,-99.99,,,0.00,weatherlink.com 1.10,2013-05-25 19:37:00,
2013-05-25 15:53:00,77.2,52.0,30.21,SSE,165,5.0,-999.0,42,-99.99,,,0.00,weatherlink.com 1.10,2013-05-25 19:53:00,
2013-05-25 16:07:00,76.2,53.0,30.21,SSW,192,8.0,-999.0,44,-99.99,,,0.00,weatherlink.com 1.10,2013-05-25 20:07:00,
2013-05-25 16:22:00,72.9,51.0,30.20,South,171,5.0,-999.0,47,-99.99,,,0.00,weatherlink.com 1.10,2013-05-25 20:22:00,
2013-05-25 16:37:00,71.8,52.0,30.20,South,173,7.0,-999.0,50,-99.99,,,0.00,weatherlink.com 1.10,2013-05-25 20:37:00,
2013-05-25 16:52:00,71.8,53.0,30.20,South,184,10.0,-999.0,51,-99.99,,,0.00,weatherlink.com 1.10,2013-05-25 20:52:00,
2013-05-25 17:07:00,71.8,52.0,30.20,South,170,4.0,-999.0,50,-99.99,,,0.00,weatherlink.com 1.10,2013-05-25 21:07:00,
2013-05-25 17:22:00,72.6,53.0,30.20,South,184,0.0,-999.0,51,-99.99,,,0.00,weatherlink.com 1.10,2013-05-25 21:22:00,
2013-05-25 17:37:00,73.3,53.0,30.20,South,189,6.0,-999.0,50,-99.99,,,0.00,weatherlink.com 1.10,2013-05-25 21:37:00,
2013-05-25 17:52:00,73.0,54.0,30.20,SSW,213,6.0,-999.0,51,-99.99,,,0.00,weatherlink.com 1.10,2013-05-25 21:52:00,
2013-05-25 18:07:00,72.7,54.0,30.20,South,182,4.0,-999.0,52,-99.99,,,0.00,weatherlink.com 1.10,2013-05-25 22:07:00,
2013-05-25 18:22:00,71.6,53.0,30.20,SW,224,2.0,-999.0,53,-99.99,,,0.00,weatherlink.com 1.10,2013-05-25 22:22:00,
2013-05-25 18:37:00,71.7,54.0,30.20,SSW,205,5.0,-999.0,53,-99.99,,,0.00,weatherlink.com 1.10,2013-05-25 22:37:00,
2013-05-25 18:52:00,71.5,54.0,30.20,SW,223,4.0,-999.0,55,-99.99,,,0.00,weatherlink.com 1.10,2013-05-25 22:52:00,
2013-05-25 19:07:00,71.2,54.0,30.20,SSW,193,0.0,-999.0,55,-99.99,,,0.00,weatherlink.com 1.10,2013-05-25 23:07:00,
2013-05-25 19:22:00,70.7,54.0,30.20,SSW,200,8.0,-999.0,56,-99.99,,,0.00,weatherlink.com 1.10,2013-05-25 23:22:00,
2013-05-25 19:37:00,70.4,54.0,30.21,South,191,0.0,-999.0,57,-99.99,,,0.00,weatherlink.com 1.10,2013-05-25 23:37:00,
2013-05-25 19:52:00,69.4,54.0,30.21,South,188,0.0,-999.0,59,-99.99,,,0.00,weatherlink.com 1.10,2013-05-25 23:52:00,
2013-05-25 20:07:00,68.5,55.0,30.21,South,188,3.0,-999.0,62,-99.99,,,0.00,weatherlink.com 1.10,2013-05-26 00:07:00,
2013-05-25 20:22:00,67.7,55.0,30.21,SSW,194,0.0,-999.0,64,-99.99,,,0.00,weatherlink.com 1.10,2013-05-26 00:22:00,
2013-05-25 20:37:00,66.8,55.0,30.21,South,191,0.0,-999.0,65,-99.99,,,0.00,weatherlink.com 1.10,2013-05-26 00:37:00,
2013-05-25 20:52:00,66.2,55.0,30.21,South,190,2.0,-999.0,67,-99.99,,,0.00,weatherlink.com 1.10,2013-05-26 00:52:00,
2013-05-25 21:07:00,65.8,55.0,30.21,SSW,198,1.0,-999.0,69,-99.99,,,0.00,weatherlink.com 1.10,2013-05-26 01:07:00,
2013-05-25 21:22:00,65.4,55.0,30.21,SSW,198,0.0,-999.0,70,-99.99,,,0.00,weatherlink.com 1.10,2013-05-26 01:22:00,
2013-05-25 21:37:00,65.2,55.0,30.21,SSW,198,0.0,-999.0,70,-99.99,,,0.00,weatherlink.com 1.10,2013-05-26 01:37:00,
2013-05-25 21:52:00,65.0,56.0,30.21,SSW,198,0.0,-999.0,72,-99.99,,,0.00,weatherlink.com 1.10,2013-05-26 01:52:00,
2013-05-25 22:07:00,64.7,56.0,30.22,SSW,198,0.0,-999.0,73,-99.99,,,0.00,weatherlink.com 1.10,2013-05-26 02:07:00,
2013-05-25 22:22:00,64.5,56.0,30.22,SSW,198,1.0,-999.0,74,-99.99,,,0.00,weatherlink.com 1.10,2013-05-26 02:22:00,
2013-05-25 22:37:00,64.6,56.0,30.22,SSW,198,0.0,-999.0,74,-99.99,,,0.00,weatherlink.com 1.10,2013-05-26 02:37:00,
2013-05-25 22:52:00,64.6,57.0,30.22,SSW,198,0.0,-999.0,76,-99.99,,,0.00,weatherlink.com 1.10,2013-05-26 02:52:00,
2013-05-25 23:08:00,64.3,56.0,30.22,SSW,199,0.0,-999.0,75,-99.99,,,0.00,weatherlink.com 1.10,2013-05-26 03:08:00,
2013-05-25 23:23:00,64.2,57.0,30.22,SSW,202,1.0,-999.0,76,-99.99,,,0.00,weatherlink.com 1.10,2013-05-26 03:23:00,
2013-05-25 23:38:00,64.1,56.0,30.22,SSW,205,1.0,-999.0,76,-99.99,,,0.00,weatherlink.com 1.10,2013-05-26 03:38:00,
2013-05-25 23:53:00,64.3,57.0,30.22,SSW,204,0.0,-999.0,76,-99.99,,,0.00,weatherlink.com 1.10,2013-05-26 03:53:00,